createdAt,value
2023-02-28T00:02:03.959Z,2.67
2023-02-28T00:04:53.902Z,2.97
2023-02-28T00:07:39.389Z,2.47
2023-02-28T00:10:30.373Z,2.50
2023-02-28T00:13:15.974Z,2.67
2023-02-28T00:16:02.669Z,2.63
2023-02-28T00:18:48.694Z,2.42
2023-02-28T00:21:34.372Z,2.40
2023-02-28T00:24:19.529Z,2.47
2023-02-28T00:27:04.976Z,2.83
2023-02-28T00:29:50.244Z,2.60
2023-02-28T00:32:35.633Z,2.22
2023-02-28T00:35:20.893Z,2.47
2023-02-28T00:38:06.660Z,2.50
2023-02-28T00:40:51.819Z,2.38
2023-02-28T00:43:38.659Z,2.38
2023-02-28T00:46:24.079Z,2.33
2023-02-28T00:49:09.478Z,2.35
2023-02-28T00:51:56.103Z,2.72
2023-02-28T00:54:41.417Z,2.70
2023-02-28T00:57:27.342Z,2.92
2023-02-28T01:00:13.170Z,2.92
2023-02-28T01:02:58.355Z,2.58
2023-02-28T01:05:43.717Z,2.20
2023-02-28T01:08:29.167Z,2.88
2023-02-28T01:11:17.076Z,2.63
2023-02-28T01:14:03.066Z,2.47
2023-02-28T01:16:48.465Z,2.95
2023-02-28T01:19:34.242Z,3.40
2023-02-28T01:22:19.682Z,2.75
2023-02-28T01:25:05.380Z,3.55
2023-02-28T01:27:50.664Z,3.03
2023-02-28T01:30:36.338Z,3.40
2023-02-28T01:33:21.689Z,3.78
2023-02-28T01:36:11.393Z,2.50
2023-02-28T01:38:56.894Z,2.80
2023-02-28T01:41:42.470Z,3.45
2023-02-28T01:44:58.271Z,3.70
2023-02-28T01:47:44.659Z,2.75
2023-02-28T01:50:36.349Z,3.10
2023-02-28T01:53:28.629Z,3.50
2023-02-28T01:56:21.366Z,3.33
2023-02-28T01:59:06.903Z,2.60
2023-02-28T02:01:52.509Z,3.65
2023-02-28T02:04:47.332Z,2.92
2023-02-28T02:07:36.322Z,3.22
2023-02-28T02:10:30.261Z,3.25
2023-02-28T02:13:44.763Z,2.45
2023-02-28T02:16:51.754Z,3.15
2023-02-28T02:20:07.951Z,3.33
2023-02-28T02:23:24.404Z,3.33
2023-02-28T02:26:12.463Z,3.08
2023-02-28T02:29:34.317Z,3.85
2023-02-28T02:33:05.437Z,3.00
2023-02-28T02:35:59.569Z,3.28
2023-02-28T02:38:52.782Z,4.05
2023-02-28T02:41:47.142Z,3.88
2023-02-28T02:44:48.664Z,3.60
2023-02-28T02:47:35.513Z,3.85
2023-02-28T02:50:26.795Z,4.03
2023-02-28T02:53:15.111Z,4.15
2023-02-28T02:56:02.389Z,4.00
2023-02-28T02:58:50.535Z,3.70
2023-02-28T03:01:38.334Z,3.88
2023-02-28T03:04:25.970Z,4.20
2023-02-28T03:07:11.381Z,3.83
2023-02-28T03:09:58.361Z,4.32
2023-02-28T03:12:57.628Z,3.85
2023-02-28T03:16:00.020Z,3.90
2023-02-28T03:19:05.330Z,5.10
2023-02-28T03:22:14.588Z,4.60
2023-02-28T03:25:21.716Z,4.28
2023-02-28T03:28:16.972Z,7.07
2023-02-28T03:31:17.970Z,3.70
2023-02-28T03:34:27.461Z,3.28
2023-02-28T03:37:17.804Z,4.47
2023-02-28T03:40:16.594Z,4.18
2023-02-28T03:43:09.236Z,4.43
2023-02-28T03:45:56.208Z,3.53
2023-02-28T03:48:49.141Z,4.40
2023-02-28T03:54:26.265Z,3.75
2023-02-28T03:57:41.998Z,4.00
2023-02-28T04:00:39.554Z,4.60
2023-02-28T04:03:24.762Z,4.45
2023-02-28T04:06:17.714Z,5.65
2023-02-28T04:09:05.052Z,4.30
2023-02-28T04:11:54.457Z,4.35
2023-02-28T04:14:39.959Z,4.25
2023-02-28T04:17:25.328Z,4.80
2023-02-28T04:20:11.551Z,4.60
2023-02-28T04:22:56.954Z,4.95
2023-02-28T04:25:42.212Z,4.30
2023-02-28T04:28:27.662Z,3.70
2023-02-28T04:31:13.063Z,4.45
2023-02-28T04:33:58.450Z,4.22
2023-02-28T04:36:43.714Z,3.80
2023-02-28T04:39:28.956Z,4.03
2023-02-28T04:42:14.850Z,4.70
2023-02-28T04:45:00.187Z,4.57
2023-02-28T04:47:45.842Z,4.35
2023-02-28T04:50:30.838Z,4.70
2023-02-28T04:53:16.206Z,5.45
2023-02-28T04:56:01.809Z,4.40
2023-02-28T04:58:47.435Z,4.25
2023-02-28T05:01:34.669Z,4.65
2023-02-28T05:04:19.889Z,5.30
2023-02-28T05:07:05.490Z,5.15
2023-02-28T05:09:50.810Z,5.05
2023-02-28T05:12:36.091Z,4.13
2023-02-28T05:15:21.544Z,4.43
2023-02-28T05:18:07.000Z,4.35
2023-02-28T05:20:52.358Z,4.95
2023-02-28T05:23:38.512Z,4.95
2023-02-28T05:26:23.909Z,4.70
2023-02-28T05:29:10.156Z,4.18
2023-02-28T05:31:55.272Z,5.32
2023-02-28T05:34:41.393Z,5.07
2023-02-28T05:37:26.489Z,6.25
2023-02-28T05:40:12.259Z,5.70
2023-02-28T05:42:57.605Z,5.22
2023-02-28T05:45:42.995Z,5.22
2023-02-28T05:48:28.474Z,6.43
2023-02-28T05:51:14.010Z,5.15
2023-02-28T05:54:02.679Z,6.53
2023-02-28T05:56:47.848Z,5.70
2023-02-28T05:59:33.145Z,4.47
2023-02-28T06:02:18.998Z,5.07
2023-02-28T06:05:04.221Z,5.40
2023-02-28T06:07:49.583Z,5.85
2023-02-28T06:10:36.337Z,5.72
2023-02-28T06:13:22.025Z,5.53
2023-02-28T06:16:07.981Z,5.40
2023-02-28T06:18:53.777Z,5.47
2023-02-28T06:21:39.137Z,5.90
2023-02-28T06:24:26.083Z,5.63
2023-02-28T06:27:11.552Z,6.50
2023-02-28T06:29:57.072Z,6.20
2023-02-28T06:32:42.517Z,5.28
2023-02-28T06:35:27.780Z,5.38
2023-02-28T06:38:13.191Z,6.18
2023-02-28T06:41:00.742Z,5.45
2023-02-28T06:43:46.335Z,5.65
2023-02-28T06:46:31.746Z,5.32
2023-02-28T06:49:18.227Z,6.10
2023-02-28T06:52:04.155Z,6.07
2023-02-28T06:55:00.571Z,6.20
2023-02-28T06:57:45.740Z,5.25
2023-02-28T07:00:31.181Z,6.35
2023-02-28T07:03:16.595Z,6.22
2023-02-28T07:06:02.728Z,5.30
2023-02-28T07:08:48.124Z,6.18
2023-02-28T07:11:33.741Z,7.00
2023-02-28T07:14:18.833Z,5.97
2023-02-28T07:17:04.683Z,5.40
2023-02-28T07:19:50.483Z,6.95
2023-02-28T07:22:35.397Z,6.22
2023-02-28T07:25:20.813Z,6.95
2023-02-28T07:28:06.310Z,5.90
2023-02-28T07:30:51.630Z,6.38
2023-02-28T07:33:37.521Z,6.07
2023-02-28T07:36:22.726Z,5.88
2023-02-28T07:39:10.373Z,6.35
2023-02-28T07:41:55.592Z,6.15
2023-02-28T07:44:41.526Z,5.88
2023-02-28T07:47:27.082Z,6.95
2023-02-28T07:50:14.230Z,6.88
2023-02-28T07:53:00.227Z,7.15
2023-02-28T07:55:45.553Z,6.75
2023-02-28T07:58:31.849Z,6.18
2023-02-28T08:01:17.046Z,6.63
2023-02-28T08:04:02.400Z,6.32
2023-02-28T08:06:48.434Z,6.75
2023-02-28T08:09:33.938Z,7.05
2023-02-28T08:12:19.483Z,6.53
2023-02-28T08:15:05.309Z,6.05
2023-02-28T08:17:50.356Z,6.65
2023-02-28T08:20:35.584Z,6.10
2023-02-28T08:23:22.094Z,6.57
2023-02-28T08:26:07.576Z,6.32
2023-02-28T08:28:53.068Z,5.75
2023-02-28T08:31:38.450Z,5.10
2023-02-28T08:34:24.084Z,5.80
2023-02-28T08:37:09.362Z,5.38
2023-02-28T08:39:56.393Z,4.32
2023-02-28T08:42:42.002Z,6.40
2023-02-28T08:45:27.442Z,4.57
2023-02-28T08:48:12.697Z,4.20
2023-02-28T08:51:08.799Z,5.30
2023-02-28T08:54:00.829Z,4.80
2023-02-28T08:56:50.467Z,4.35
2023-02-28T08:59:35.721Z,3.85
2023-02-28T09:02:21.110Z,5.10
2023-02-28T09:05:07.037Z,5.07
2023-02-28T09:07:52.522Z,4.70
2023-02-28T09:10:37.890Z,5.40
2023-02-28T09:13:23.201Z,5.45
2023-02-28T09:16:11.658Z,5.03
2023-02-28T09:18:57.397Z,4.55
2023-02-28T09:21:42.584Z,5.15
2023-02-28T09:24:27.926Z,5.95
2023-02-28T09:27:13.246Z,5.22
2023-02-28T09:29:58.610Z,4.43
2023-02-28T09:32:54.629Z,5.53
2023-02-28T09:35:39.986Z,6.00
2023-02-28T09:38:25.613Z,4.97
2023-02-28T09:41:15.901Z,5.85
2023-02-28T09:44:04.235Z,5.00
2023-02-28T09:46:54.333Z,5.90
2023-02-28T09:49:47.536Z,5.63
2023-02-28T09:52:33.473Z,5.05
2023-02-28T09:55:26.344Z,5.75
2023-02-28T09:58:31.514Z,5.18
2023-02-28T10:01:49.405Z,5.47
2023-02-28T10:04:58.558Z,5.68
2023-02-28T10:08:06.779Z,4.93
2023-02-28T10:11:07.156Z,5.13
2023-02-28T10:13:55.322Z,4.82
2023-02-28T10:17:02.722Z,4.72
2023-02-28T10:19:50.871Z,4.97
2023-02-28T10:22:59.273Z,5.03
2023-02-28T10:25:50.992Z,4.80
2023-02-28T10:28:36.471Z,4.43
2023-02-28T10:31:22.676Z,5.18
2023-02-28T10:34:12.690Z,5.05
2023-02-28T10:37:08.171Z,5.10
2023-02-28T10:39:53.546Z,4.45
2023-02-28T10:42:39.931Z,4.38
2023-02-28T10:45:26.135Z,4.43
2023-02-28T10:48:14.172Z,5.65
2023-02-28T10:51:00.172Z,5.13
2023-02-28T10:54:03.083Z,5.15
2023-02-28T10:57:17.401Z,5.40
2023-02-28T11:00:20.573Z,5.70
2023-02-28T11:03:31.773Z,4.95
2023-02-28T11:06:22.036Z,5.13
2023-02-28T11:09:35.832Z,7.10
2023-02-28T11:12:34.011Z,5.53
2023-02-28T11:15:31.880Z,5.07
2023-02-28T11:18:29.852Z,5.18
2023-02-28T11:21:20.651Z,4.95
2023-02-28T11:24:19.716Z,5.22
2023-02-28T11:27:05.011Z,5.72
2023-02-28T11:29:50.630Z,5.38
2023-02-28T11:32:35.967Z,4.72
2023-02-28T11:35:31.724Z,4.63
2023-02-28T11:38:17.326Z,4.93
2023-02-28T11:41:24.601Z,5.22
2023-02-28T11:44:31.814Z,5.22
2023-02-28T11:47:39.021Z,5.13
2023-02-28T11:50:33.951Z,5.40
2023-02-28T11:53:41.447Z,4.95
2023-02-28T11:56:55.885Z,4.78
2023-02-28T12:00:18.888Z,5.32
2023-02-28T12:03:29.763Z,5.13
2023-02-28T12:06:33.707Z,4.95
2023-02-28T12:09:42.704Z,4.90
2023-02-28T12:13:05.845Z,4.80
2023-02-28T12:15:59.562Z,4.93
2023-02-28T12:19:16.036Z,4.90
2023-02-28T12:22:21.792Z,4.82
2023-02-28T12:25:07.170Z,5.15
2023-02-28T12:27:54.221Z,4.85
2023-02-28T12:30:47.799Z,4.88
2023-02-28T12:33:38.106Z,5.00
2023-02-28T12:36:24.864Z,6.78
2023-02-28T12:39:24.465Z,5.00
2023-02-28T12:42:18.430Z,4.95
2023-02-28T12:45:11.321Z,5.00
2023-02-28T12:48:02.362Z,4.40
2023-02-28T12:50:49.266Z,4.75
2023-02-28T12:54:14.147Z,4.65
2023-02-28T12:57:14.321Z,4.72
2023-02-28T13:00:13.056Z,5.00
2023-02-28T13:03:25.221Z,4.57
2023-02-28T13:06:24.166Z,4.25
2023-02-28T13:09:16.494Z,4.22
2023-02-28T13:12:02.096Z,5.90
2023-02-28T13:14:47.613Z,5.20
2023-02-28T13:17:34.168Z,5.18
2023-02-28T13:20:24.002Z,5.03
2023-02-28T13:23:38.367Z,4.50
2023-02-28T13:26:38.593Z,4.28
2023-02-28T13:29:35.044Z,4.57
2023-02-28T13:32:30.742Z,4.90
2023-02-28T13:35:35.205Z,4.68
2023-02-28T13:38:34.363Z,5.38
2023-02-28T13:41:31.920Z,4.65
2023-02-28T13:44:24.939Z,4.43
2023-02-28T13:50:23.394Z,4.70
2023-02-28T13:53:14.680Z,5.07
2023-02-28T13:56:30.733Z,4.80
2023-02-28T13:59:29.432Z,5.15
2023-02-28T14:02:49.277Z,4.93
2023-02-28T14:05:35.505Z,4.82
2023-02-28T14:08:24.025Z,4.78
2023-02-28T14:11:43.457Z,5.07
2023-02-28T14:14:37.854Z,4.72
2023-02-28T14:17:23.919Z,5.30
2023-02-28T14:20:16.525Z,6.38
2023-02-28T14:23:14.055Z,5.88
2023-02-28T14:26:35.148Z,6.18
2023-02-28T14:29:38.623Z,6.30
2023-02-28T14:32:47.126Z,5.15
2023-02-28T14:35:52.053Z,7.07
2023-02-28T14:38:55.802Z,4.90
2023-02-28T14:41:44.617Z,4.85
2023-02-28T14:44:30.266Z,5.25
2023-02-28T14:47:17.272Z,5.75
2023-02-28T14:50:05.463Z,5.05
2023-02-28T14:52:57.053Z,5.35
2023-02-28T14:55:46.507Z,5.10
2023-02-28T14:58:34.255Z,5.47
2023-02-28T15:01:23.054Z,5.68
2023-02-28T15:04:22.165Z,4.93
2023-02-28T15:07:15.462Z,4.78
2023-02-28T15:10:13.170Z,5.20
2023-02-28T15:13:07.423Z,5.03
2023-02-28T15:16:02.741Z,5.10
2023-02-28T15:19:16.484Z,5.10
2023-02-28T15:25:19.233Z,5.32
2023-02-28T15:28:04.463Z,5.35
2023-02-28T15:31:02.240Z,5.43
2023-02-28T15:33:56.032Z,5.95
2023-02-28T15:36:41.543Z,6.18
2023-02-28T15:39:29.133Z,5.63
2023-02-28T15:42:21.204Z,6.93
2023-02-28T15:45:06.989Z,6.07
2023-02-28T15:47:53.625Z,6.00
2023-02-28T15:50:39.287Z,5.50
2023-02-28T15:53:29.386Z,5.90
2023-02-28T15:56:18.500Z,6.07
2023-02-28T15:59:07.914Z,5.90
2023-02-28T16:02:13.707Z,6.25
2023-02-28T16:05:11.529Z,6.38
2023-02-28T16:07:58.344Z,6.15
2023-02-28T16:10:43.849Z,6.50
2023-02-28T16:13:29.201Z,7.35
2023-02-28T16:16:20.435Z,6.50
2023-02-28T16:19:06.126Z,6.35
2023-02-28T16:21:52.112Z,6.75
2023-02-28T16:24:37.858Z,7.68
2023-02-28T16:27:32.084Z,6.07
2023-02-28T16:30:25.150Z,5.43
2023-02-28T16:33:10.624Z,6.22
2023-02-28T16:35:55.965Z,5.95
2023-02-28T16:38:41.324Z,7.25
2023-02-28T16:41:29.158Z,6.53
2023-02-28T16:44:30.057Z,6.90
2023-02-28T16:47:15.646Z,6.47
2023-02-28T16:50:00.928Z,7.63
2023-02-28T16:52:46.528Z,7.10
2023-02-28T16:55:31.965Z,6.45
2023-02-28T16:58:18.286Z,7.22
2023-02-28T17:01:04.679Z,6.72
2023-02-28T17:03:50.603Z,7.72
2023-02-28T17:06:35.929Z,7.03
2023-02-28T17:09:28.260Z,7.20
2023-02-28T17:12:16.113Z,6.18
2023-02-28T17:15:01.477Z,6.30
2023-02-28T17:17:48.607Z,7.32
2023-02-28T17:20:33.729Z,7.25
2023-02-28T17:23:18.990Z,7.22
2023-02-28T17:26:07.433Z,7.65
2023-02-28T17:28:59.326Z,6.75
2023-02-28T17:31:44.593Z,7.45
2023-02-28T17:34:29.889Z,6.43
2023-02-28T17:37:15.493Z,6.38
2023-02-28T17:40:00.585Z,7.35
2023-02-28T17:42:46.878Z,6.45
2023-02-28T17:45:31.990Z,7.38
2023-02-28T17:48:17.915Z,7.68
2023-02-28T17:51:03.477Z,6.90
2023-02-28T17:53:49.072Z,8.48
2023-02-28T17:56:34.288Z,7.55
2023-02-28T17:59:19.752Z,6.50
2023-02-28T18:02:04.862Z,7.05
2023-02-28T18:04:50.435Z,7.07
2023-02-28T18:07:38.791Z,7.57
2023-02-28T18:10:24.188Z,7.72
2023-02-28T18:13:09.365Z,7.75
2023-02-28T18:15:55.346Z,6.70
2023-02-28T18:18:40.798Z,7.90
2023-02-28T18:21:25.937Z,8.10
2023-02-28T18:24:12.750Z,7.25
2023-02-28T18:26:58.009Z,7.88
2023-02-28T18:29:43.326Z,7.95
2023-02-28T18:32:29.900Z,7.78
2023-02-28T18:35:15.160Z,7.53
2023-02-28T18:38:16.341Z,7.47
2023-02-28T18:41:05.335Z,8.23
2023-02-28T18:43:52.206Z,7.70
2023-02-28T18:46:38.264Z,8.55
2023-02-28T18:49:23.551Z,9.32
2023-02-28T18:52:08.929Z,8.88
2023-02-28T18:54:54.248Z,8.23
2023-02-28T18:57:39.745Z,7.78
2023-02-28T19:00:25.829Z,8.85
2023-02-28T19:03:12.572Z,7.38
2023-02-28T19:05:59.279Z,8.05
2023-02-28T19:08:45.135Z,7.72
2023-02-28T19:11:30.989Z,7.53
2023-02-28T19:14:16.418Z,7.30
2023-02-28T19:17:01.959Z,8.70
2023-02-28T19:19:47.373Z,7.97
2023-02-28T19:22:32.774Z,8.15
2023-02-28T19:25:19.007Z,8.88
2023-02-28T19:28:04.244Z,8.77
2023-02-28T19:30:52.894Z,8.10
2023-02-28T19:33:38.454Z,9.32
2023-02-28T19:36:23.744Z,8.55
2023-02-28T19:39:09.218Z,9.13
2023-02-28T19:41:54.628Z,9.02
2023-02-28T19:44:40.291Z,8.38
2023-02-28T19:47:25.454Z,8.27
2023-02-28T19:50:11.228Z,8.43
2023-02-28T19:52:58.934Z,8.23
2023-02-28T19:55:47.628Z,8.38
2023-02-28T19:58:33.774Z,8.05
2023-02-28T20:01:20.040Z,6.93
2023-02-28T20:04:05.896Z,8.27
2023-02-28T20:06:51.114Z,7.93
2023-02-28T20:09:36.428Z,8.35
2023-02-28T20:12:24.389Z,8.45
2023-02-28T20:15:10.500Z,7.90
2023-02-28T20:17:57.401Z,8.90
2023-02-28T20:20:42.891Z,7.97
2023-02-28T20:23:28.673Z,8.63
2023-02-28T20:26:15.589Z,8.00
2023-02-28T20:29:00.928Z,9.85
2023-02-28T20:31:46.643Z,9.30
2023-02-28T20:34:31.922Z,8.60
2023-02-28T20:37:17.316Z,8.77
2023-02-28T20:40:04.378Z,8.20
2023-02-28T20:42:49.932Z,8.15
2023-02-28T20:45:35.751Z,8.57
2023-02-28T20:48:21.994Z,9.13
2023-02-28T20:51:07.684Z,8.50
2023-02-28T20:53:52.822Z,8.75
2023-02-28T20:56:38.434Z,8.45
2023-02-28T20:59:23.700Z,8.70
2023-02-28T21:02:14.596Z,8.77
2023-02-28T21:04:59.770Z,9.65
2023-02-28T21:07:45.082Z,7.80
2023-02-28T21:10:30.591Z,7.63
2023-02-28T21:13:15.965Z,8.73
2023-02-28T21:16:10.242Z,8.70
2023-02-28T21:18:56.254Z,8.38
2023-02-28T21:21:43.928Z,7.57
2023-02-28T21:24:29.387Z,8.73
2023-02-28T21:27:14.943Z,9.48
2023-02-28T21:30:00.073Z,9.25
2023-02-28T21:32:45.419Z,8.27
2023-02-28T21:35:31.382Z,8.60
2023-02-28T21:38:16.344Z,9.15
2023-02-28T21:41:12.768Z,8.70
2023-02-28T21:43:58.115Z,8.73
2023-02-28T21:46:47.856Z,8.25
2023-02-28T21:49:33.485Z,9.27
2023-02-28T21:52:21.897Z,9.00
2023-02-28T21:55:07.257Z,9.82
2023-02-28T21:57:52.612Z,9.73
2023-02-28T22:00:37.931Z,9.85
2023-02-28T22:03:23.339Z,8.90
2023-02-28T22:06:14.368Z,9.07
2023-02-28T22:09:02.157Z,9.07
2023-02-28T22:11:47.653Z,8.93
2023-02-28T22:14:33.021Z,9.43
2023-02-28T22:17:18.415Z,9.55
2023-02-28T22:20:04.021Z,8.70
2023-02-28T22:22:48.972Z,9.35
2023-02-28T22:25:37.524Z,10.07
2023-02-28T22:28:23.925Z,9.70
2023-02-28T22:31:18.321Z,9.15
2023-02-28T22:34:06.999Z,9.27
2023-02-28T22:36:52.058Z,9.32
2023-02-28T22:39:37.345Z,9.65
2023-02-28T22:42:22.914Z,9.55
2023-02-28T22:45:08.745Z,9.50
2023-02-28T22:47:54.326Z,10.10
2023-02-28T22:50:39.290Z,9.38
2023-02-28T22:53:24.721Z,9.52
2023-02-28T22:56:12.538Z,9.48
2023-02-28T22:58:59.642Z,10.00
2023-02-28T23:01:44.755Z,9.40
2023-02-28T23:04:29.975Z,9.10
2023-02-28T23:07:15.649Z,10.13
2023-02-28T23:10:01.094Z,9.57
2023-02-28T23:12:52.140Z,9.05
2023-02-28T23:15:40.719Z,8.52
2023-02-28T23:18:25.892Z,8.20
2023-02-28T23:21:11.450Z,8.93
2023-02-28T23:23:56.664Z,9.75
2023-02-28T23:26:44.801Z,10.57
2023-02-28T23:29:30.449Z,8.48
2023-02-28T23:32:15.560Z,9.20
2023-02-28T23:35:00.917Z,9.50
2023-02-28T23:37:46.298Z,9.15
2023-02-28T23:40:31.877Z,9.82
2023-02-28T23:43:17.284Z,9.20
2023-02-28T23:46:03.456Z,9.02
2023-02-28T23:48:48.920Z,9.00
2023-02-28T23:51:33.934Z,8.13
2023-02-28T23:54:19.723Z,8.38
2023-02-28T23:57:04.808Z,8.05
2023-02-28T23:59:50.232Z,8.75
